Diamond Canakkale — TCTC5 — position and weather

sailwx.info

Track history (hours):
 
Tides and Currents Weather Stations Pressure Air Temp Water Temp Dewpoint Dewpoint Depression Visibility Wind Speed Wind Dir Waves Ship Positions

Diamond Canakkale

Last reported at 2017-Nov-11 14:13 UTC. Time now 2017-Nov-24 18:19 UTC.
Position N 25°02' W 016°17'.
Warning: this ship's position is 13 days out of date.

Length 113 m; draft 7.8 m.

Type: Cargo ship. MMSI: 271002564.

Date/timePositionNaut miles runAvg speedWind from/ knotsBaromVisibWave heightAir tempDewpointWater temp
2017-Nov-11 14:13N 25°02' W 016°17'711.6
2017-Nov-11 13:39N 25°09' W 016°14'211.7
2017-Nov-11 13:31N 25°10' W 016°14'611.3
2017-Nov-11 12:59N 25°16' W 016°12'14911.7
2017-Nov-11 00:16N 27°35' W 015°14'311.5
2017-Nov-10 23:58N 27°39' W 015°13'612.1
2017-Nov-10 23:30N 27°44' W 015°11'612.1
2017-Nov-10 23:00N 27°49' W 015°14'611.7
2017-Nov-10 22:30N 27°55' W 015°16'611.7
2017-Nov-10 22:00N 28°00' W 015°19'611.4
2017-Nov-10 21:30N 28°05' W 015°22'4 8.3
2017-Nov-10 21:00N 28°09' W 015°25'0 0.0
2017-Nov-10 20:28N 28°09' W 015°25'0 0.0
2017-Nov-10 19:58N 28°09' W 015°25'0 0.0
2017-Nov-10 19:28N 28°09' W 015°25'0 0.0
2017-Nov-10 18:58N 28°09' W 015°25'0 0.0
2017-Nov-10 18:28N 28°09' W 015°25'0 0.0
2017-Nov-10 17:58N 28°09' W 015°25'0 0.0
2017-Nov-10 17:28N 28°09' W 015°25'0 0.0
2017-Nov-10 16:58N 28°09' W 015°25'0 0.0
2017-Nov-10 16:29N 28°09' W 015°25'0 0.1
2017-Nov-10 16:00N 28°08' W 015°25'2 3.2
2017-Nov-10 15:30N 28°07' W 015°24'510.6
2017-Nov-10 15:00N 28°12' W 015°21'611.1
2017-Nov-10 14:30N 28°17' W 015°18'611.2
2017-Nov-10 14:01N 28°22' W 015°16'510.2
2017-Nov-10 13:30N 28°26' W 015°12'1 2.8
2017-Nov-10 13:01N 28°25' W 015°13'1 2.2
2017-Nov-10 12:31N 28°24' W 015°14'1 2.4
2017-Nov-10 12:00N 28°23' W 015°14'3 5.9
2017-Nov-10 11:30N 28°26' W 015°14'611.7
2017-Nov-10 11:00N 28°32' W 015°12'611.5
2017-Nov-10 10:31N 28°37' W 015°09'611.3
2017-Nov-10 10:01N 28°42' W 015°07'611.5
2017-Nov-10 09:30N 28°48' W 015°05'611.7
2017-Nov-10 09:00N 28°53' W 015°03'2311.8
2017-Nov-10 07:02N 29°15' W 014°53'411.9
2017-Nov-10 06:40N 29°19' W 014°51'211.8
2017-Nov-10 06:28N 29°21' W 014°50'711.7
2017-Nov-10 05:52N 29°28' W 014°47'611.5
2017-Nov-10 05:18N 29°34' W 014°45'412.1
2017-Nov-10 04:58N 29°38' W 014°44'712.4
2017-Nov-10 04:26N 29°44' W 014°40'612.2
2017-Nov-10 03:57N 29°49' W 014°37'512.0
2017-Nov-10 03:31N 29°54' W 014°35'611.8
2017-Nov-10 03:00N 29°59' W 014°32'911.9
2017-Nov-10 02:16N 30°07' W 014°28'412.0
2017-Nov-10 01:57N 30°11' W 014°26'511.9
2017-Nov-10 01:29N 30°16' W 014°23'  
2017-Nov-05 12:08N 49°47' W 003°28'212.6
2017-Nov-05 12:00N 49°47' W 003°26'612.6
2017-Nov-05 11:30N 49°50' W 003°17'712.1
2017-Nov-05 10:56N 49°53' W 003°07'511.5
2017-Nov-05 10:30N 49°56' W 003°01'510.7
2017-Nov-05 10:01N 49°58' W 002°53'5 9.7
2017-Nov-05 09:30N 49°60' W 002°46'5 8.6
2017-Nov-05 08:59N 50°01' W 002°39'5 7.9
2017-Nov-05 08:20N 50°02' W 002°32'20 7.6
2017-Nov-05 05:42N 50°07' W 002°02'2 9.2
2017-Nov-05 05:27N 50°08' W 001°58'510.1
2017-Nov-05 04:59N 50°10' W 001°51'511.5
2017-Nov-05 04:30N 50°11' W 001°43'612.6
2017-Nov-05 04:00N 50°13' W 001°33'813.7
2017-Nov-05 03:25N 50°14' W 001°21'3614.0
2017-Nov-05 00:52N 50°23' W 000°27'512.7
2017-Nov-05 00:30N 50°25' W 000°20'612.0
2017-Nov-05 00:00N 50°26' W 000°11'611.4
2017-Nov-04 23:30N 50°28' W 000°02'510.8
2017-Nov-04 23:00N 50°29' E 000°06'510.1
2017-Nov-04 22:30N 50°31' E 000°14'5 9.6
2017-Nov-04 22:00N 50°32' E 000°21'5 9.3
2017-Nov-04 21:30N 50°33' E 000°28'5 9.1
2017-Nov-04 21:00N 50°35' E 000°35'5 9.2
2017-Nov-04 20:30N 50°37' E 000°41'510.0
2017-Nov-04 20:00N 50°40' E 000°48'511.0
2017-Nov-04 19:30N 50°43' E 000°54'612.2
2017-Nov-04 19:00N 50°47' E 001°02'713.0
2017-Nov-04 18:27N 50°51' E 001°11'613.5
2017-Nov-04 18:00N 50°55' E 001°18'713.8
2017-Nov-04 17:31N 50°60' E 001°26'612.6
2017-Nov-04 17:00N 51°04' E 001°34'611.7
2017-Nov-04 16:31N 51°03' E 001°43'611.1
2017-Nov-04 16:00N 51°02' E 001°52'510.0
2017-Nov-04 15:30N 51°03' E 001°60'511.0
2017-Nov-04 15:00N 51°03' E 002°08'510.9
2017-Nov-04 14:30N 51°04' E 002°17'3 5.6
2017-Nov-04 13:59N 51°03' E 002°21'0 0.2
2017-Nov-04 13:26N 51°03' E 002°21'0 0.8
2017-Nov-04 12:55N 51°03' E 002°22'0 0.0
2017-Nov-04 12:28N 51°03' E 002°22'0 0.0
2017-Nov-04 11:58N 51°03' E 002°22'0 0.0
2017-Nov-04 11:16N 51°03' E 002°22'0 0.0
2017-Nov-04 10:58N 51°03' E 002°22'0 0.0
2017-Nov-04 10:28N 51°03' E 002°22'0 0.0
2017-Nov-04 09:55N 51°03' E 002°22'0 0.0
2017-Nov-04 09:28N 51°03' E 002°22'0 0.0
2017-Nov-04 07:52N 51°03' E 002°22'0 0.0
2017-Nov-04 07:19N 51°03' E 002°22'0 0.0
2017-Nov-04 06:46N 51°03' E 002°22'0 0.0
2017-Nov-04 06:28N 51°03' E 002°22'0 0.0
2017-Nov-04 05:49N 51°03' E 002°22'0 0.0
2017-Nov-04 05:25N 51°03' E 002°22'0 0.0
2017-Nov-04 04:55N 51°03' E 002°22'0 0.0
2017-Nov-04 04:22N 51°03' E 002°22'0 0.0
2017-Nov-04 03:55N 51°03' E 002°22'0 0.0
2017-Nov-04 03:28N 51°03' E 002°22'0 0.0
2017-Nov-04 02:58N 51°03' E 002°22'0 0.0
2017-Nov-04 02:28N 51°03' E 002°22'0 0.0
2017-Nov-04 01:58N 51°03' E 002°22'0 0.0
2017-Nov-04 01:28N 51°03' E 002°22'0 0.0
2017-Nov-04 00:43N 51°03' E 002°22'0 0.0
2017-Nov-04 00:13N 51°03' E 002°22'0 0.0
2017-Nov-03 23:58N 51°03' E 002°22'0 0.0
2017-Nov-03 23:28N 51°03' E 002°22'0 0.0
2017-Nov-03 22:55N 51°03' E 002°22'0 0.0
2017-Nov-03 22:25N 51°03' E 002°22'0 0.0
2017-Nov-03 21:37N 51°03' E 002°22'0 0.0
2017-Nov-03 21:28N 51°03' E 002°22'0 0.0
2017-Nov-03 20:34N 51°03' E 002°22'0 0.0
2017-Nov-03 20:28N 51°03' E 002°22'0 0.0
2017-Nov-03 19:58N 51°03' E 002°22'0 0.0
2017-Nov-03 19:28N 51°03' E 002°22'0 0.0
2017-Nov-03 18:58N 51°03' E 002°22'0 0.0
2017-Nov-03 18:28N 51°03' E 002°22'0 0.0
2017-Nov-03 17:52N 51°03' E 002°22'0 0.0
2017-Nov-03 17:28N 51°03' E 002°22'0 0.0
2017-Nov-03 16:19N 51°03' E 002°22'0 0.0
2017-Nov-03 15:55N 51°03' E 002°22'0 0.0
2017-Nov-03 15:22N 51°03' E 002°22'0 0.0
2017-Nov-03 14:58N 51°03' E 002°22'0 0.0
2017-Nov-03 14:28N 51°03' E 002°22'0 0.0
2017-Nov-03 13:37N 51°03' E 002°22'0 0.0
2017-Nov-03 13:13N 51°03' E 002°22'0 0.0
2017-Nov-03 12:55N 51°03' E 002°22'0 0.0
2017-Nov-03 12:28N 51°03' E 002°22'0 0.0
2017-Nov-03 11:58N 51°03' E 002°22'0 0.0
2017-Nov-03 11:19N 51°03' E 002°22'0 0.0
2017-Nov-03 10:55N 51°03' E 002°22'0 0.0
2017-Nov-03 10:25N 51°03' E 002°22'0 0.0
2017-Nov-03 09:40N 51°03' E 002°22'0 0.0
2017-Nov-03 09:01N 51°03' E 002°22'0 0.0
2017-Nov-03 08:58N 51°03' E 002°22'0 0.0
2017-Nov-03 08:19N 51°03' E 002°22'0 0.0
2017-Nov-03 07:52N 51°03' E 002°22'0 0.0
2017-Nov-03 07:28N 51°03' E 002°22'0 0.0
2017-Nov-03 06:52N 51°03' E 002°22'0 0.0
2017-Nov-03 06:28N 51°03' E 002°22'0 0.0
2017-Nov-03 05:40N 51°03' E 002°22'0 0.0
2017-Nov-03 05:19N 51°03' E 002°22'0 0.0
2017-Nov-03 04:49N 51°03' E 002°22'0 0.0
2017-Nov-03 04:25N 51°03' E 002°22'0 0.0
2017-Nov-03 03:55N 51°03' E 002°22'0 0.0
2017-Nov-03 02:34N 51°03' E 002°22'0 0.1
2017-Nov-03 02:28N 51°03' E 002°22'0 0.0
2017-Nov-03 01:58N 51°03' E 002°22'0 0.0
2017-Nov-03 01:19N 51°03' E 002°22'0 0.0
2017-Nov-03 00:55N 51°03' E 002°22'0 0.0
2017-Nov-03 00:25N 51°03' E 002°22'0 0.0
2017-Nov-02 23:58N 51°03' E 002°22'0 0.0
2017-Nov-02 23:28N 51°03' E 002°22'0 0.0
2017-Nov-02 22:19N 51°03' E 002°22'0 0.0
2017-Nov-02 21:58N 51°03' E 002°22'0 0.0
2017-Nov-02 21:25N 51°03' E 002°22'0 0.0
2017-Nov-02 20:52N 51°03' E 002°22'0 0.0
2017-Nov-02 20:28N 51°03' E 002°22'0 0.0
2017-Nov-02 19:55N 51°03' E 002°22'0 0.0
2017-Nov-02 19:07N 51°03' E 002°22'0 0.0
2017-Nov-02 18:52N 51°03' E 002°22'0 0.0
2017-Nov-02 18:22N 51°03' E 002°22'0 0.0
2017-Nov-02 17:04N 51°03' E 002°22'0 0.0
2017-Nov-02 16:34N 51°03' E 002°22'0 0.0
2017-Nov-02 16:28N 51°03' E 002°22'0 0.0
2017-Nov-02 15:58N 51°03' E 002°22'0 0.0
2017-Nov-02 15:22N 51°03' E 002°22'0 0.0
2017-Nov-02 14:58N 51°03' E 002°22'0 0.0
2017-Nov-02 13:49N 51°03' E 002°22'0 0.0
2017-Nov-02 13:28N 51°03' E 002°22'0 0.0
2017-Nov-02 12:55N 51°03' E 002°22'0 0.0
2017-Nov-02 12:22N 51°03' E 002°22'0 0.0
2017-Nov-02 11:58N 51°03' E 002°22'0 0.0
2017-Nov-02 11:19N 51°03' E 002°22'0 0.0
2017-Nov-02 10:43N 51°03' E 002°22'0 0.0
2017-Nov-02 10:28N 51°03' E 002°22'0 0.0
2017-Nov-02 09:58N 51°03' E 002°22'0 0.0
2017-Nov-02 08:25N 51°03' E 002°22'0 0.0
2017-Nov-02 07:49N 51°03' E 002°22'0 0.0
2017-Nov-02 07:16N 51°03' E 002°22'0 0.0
2017-Nov-02 06:55N 51°03' E 002°22'0 0.0
2017-Nov-02 06:28N 51°03' E 002°22'0 0.0
2017-Nov-02 05:31N 51°03' E 002°22'0 0.0
2017-Nov-02 05:28N 51°03' E 002°22'0 0.0
2017-Nov-02 04:58N 51°03' E 002°22'0 0.0
2017-Nov-02 04:28N 51°03' E 002°22'0 0.0
2017-Nov-02 02:49N 51°03' E 002°22'0 0.0
2017-Nov-02 02:28N 51°03' E 002°22'0 0.0
2017-Nov-02 01:55N 51°03' E 002°22'0 0.0
2017-Nov-02 01:25N 51°03' E 002°22'0 0.0
2017-Nov-02 00:58N 51°03' E 002°22'0 0.0
2017-Nov-02 00:25N 51°03' E 002°22'0 0.0
2017-Nov-01 23:58N 51°03' E 002°22'0 0.0
2017-Nov-01 23:22N 51°03' E 002°22'0 0.0
2017-Nov-01 22:46N 51°03' E 002°22'0 0.0
2017-Nov-01 22:25N 51°03' E 002°22'0 0.0
2017-Nov-01 21:55N 51°03' E 002°22'0 0.0
2017-Nov-01 21:22N 51°03' E 002°22'0 0.0
2017-Nov-01 20:49N 51°03' E 002°22'0 0.0
2017-Nov-01 20:25N 51°03' E 002°22'0 0.0
2017-Nov-01 19:43N 51°03' E 002°22'0 0.0
2017-Nov-01 19:16N 51°03' E 002°22'0 0.0
2017-Nov-01 18:58N 51°03' E 002°22'0 0.0
2017-Nov-01 18:28N 51°03' E 002°22'  
Track history (hours):
 
Tides and Currents Weather Stations Pressure Air Temp Water Temp Dewpoint Dewpoint Depression Visibility Wind Speed Wind Dir Waves Ship Positions

Diamond Canakkale

Last reported at 2017-Nov-11 14:13 UTC. Time now 2017-Nov-24 18:19 UTC.
Position N 25°02' W 016°17'.
Warning: this ship's position is 13 days out of date.

Length 113 m; draft 7.8 m.

Type: Cargo ship. MMSI: 271002564.

Date/timePositionNaut miles runAvg speedWind from/ knotsBaromVisibWave heightAir tempDewpointWater temp
2017-Nov-11 14:13N 25°02' W 016°17'711.6
2017-Nov-11 13:39N 25°09' W 016°14'211.7
2017-Nov-11 13:31N 25°10' W 016°14'611.3
2017-Nov-11 12:59N 25°16' W 016°12'14911.7
2017-Nov-11 00:16N 27°35' W 015°14'311.5
2017-Nov-10 23:58N 27°39' W 015°13'612.1
2017-Nov-10 23:30N 27°44' W 015°11'612.1
2017-Nov-10 23:00N 27°49' W 015°14'611.7
2017-Nov-10 22:30N 27°55' W 015°16'611.7
2017-Nov-10 22:00N 28°00' W 015°19'611.4
2017-Nov-10 21:30N 28°05' W 015°22'4 8.3
2017-Nov-10 21:00N 28°09' W 015°25'0 0.0
2017-Nov-10 20:28N 28°09' W 015°25'0 0.0
2017-Nov-10 19:58N 28°09' W 015°25'0 0.0
2017-Nov-10 19:28N 28°09' W 015°25'0 0.0
2017-Nov-10 18:58N 28°09' W 015°25'0 0.0
2017-Nov-10 18:28N 28°09' W 015°25'0 0.0
2017-Nov-10 17:58N 28°09' W 015°25'0 0.0
2017-Nov-10 17:28N 28°09' W 015°25'0 0.0
2017-Nov-10 16:58N 28°09' W 015°25'0 0.0
2017-Nov-10 16:29N 28°09' W 015°25'0 0.1
2017-Nov-10 16:00N 28°08' W 015°25'2 3.2
2017-Nov-10 15:30N 28°07' W 015°24'510.6
2017-Nov-10 15:00N 28°12' W 015°21'611.1
2017-Nov-10 14:30N 28°17' W 015°18'611.2
2017-Nov-10 14:01N 28°22' W 015°16'510.2
2017-Nov-10 13:30N 28°26' W 015°12'1 2.8
2017-Nov-10 13:01N 28°25' W 015°13'1 2.2
2017-Nov-10 12:31N 28°24' W 015°14'1 2.4
2017-Nov-10 12:00N 28°23' W 015°14'3 5.9
2017-Nov-10 11:30N 28°26' W 015°14'611.7
2017-Nov-10 11:00N 28°32' W 015°12'611.5
2017-Nov-10 10:31N 28°37' W 015°09'611.3
2017-Nov-10 10:01N 28°42' W 015°07'611.5
2017-Nov-10 09:30N 28°48' W 015°05'611.7
2017-Nov-10 09:00N 28°53' W 015°03'2311.8
2017-Nov-10 07:02N 29°15' W 014°53'411.9
2017-Nov-10 06:40N 29°19' W 014°51'211.8
2017-Nov-10 06:28N 29°21' W 014°50'711.7
2017-Nov-10 05:52N 29°28' W 014°47'611.5
2017-Nov-10 05:18N 29°34' W 014°45'412.1
2017-Nov-10 04:58N 29°38' W 014°44'712.4
2017-Nov-10 04:26N 29°44' W 014°40'612.2
2017-Nov-10 03:57N 29°49' W 014°37'512.0
2017-Nov-10 03:31N 29°54' W 014°35'611.8
2017-Nov-10 03:00N 29°59' W 014°32'911.9
2017-Nov-10 02:16N 30°07' W 014°28'412.0
2017-Nov-10 01:57N 30°11' W 014°26'511.9
2017-Nov-10 01:29N 30°16' W 014°23'  
2017-Nov-05 12:08N 49°47' W 003°28'212.6
2017-Nov-05 12:00N 49°47' W 003°26'612.6
2017-Nov-05 11:30N 49°50' W 003°17'712.1
2017-Nov-05 10:56N 49°53' W 003°07'511.5
2017-Nov-05 10:30N 49°56' W 003°01'510.7
2017-Nov-05 10:01N 49°58' W 002°53'5 9.7
2017-Nov-05 09:30N 49°60' W 002°46'5 8.6
2017-Nov-05 08:59N 50°01' W 002°39'5 7.9
2017-Nov-05 08:20N 50°02' W 002°32'20 7.6
2017-Nov-05 05:42N 50°07' W 002°02'2 9.2
2017-Nov-05 05:27N 50°08' W 001°58'510.1
2017-Nov-05 04:59N 50°10' W 001°51'511.5
2017-Nov-05 04:30N 50°11' W 001°43'612.6
2017-Nov-05 04:00N 50°13' W 001°33'813.7
2017-Nov-05 03:25N 50°14' W 001°21'3614.0
2017-Nov-05 00:52N 50°23' W 000°27'512.7
2017-Nov-05 00:30N 50°25' W 000°20'612.0
2017-Nov-05 00:00N 50°26' W 000°11'611.4
2017-Nov-04 23:30N 50°28' W 000°02'510.8
2017-Nov-04 23:00N 50°29' E 000°06'510.1
2017-Nov-04 22:30N 50°31' E 000°14'5 9.6
2017-Nov-04 22:00N 50°32' E 000°21'5 9.3
2017-Nov-04 21:30N 50°33' E 000°28'5 9.1
2017-Nov-04 21:00N 50°35' E 000°35'5 9.2
2017-Nov-04 20:30N 50°37' E 000°41'510.0
2017-Nov-04 20:00N 50°40' E 000°48'511.0
2017-Nov-04 19:30N 50°43' E 000°54'612.2
2017-Nov-04 19:00N 50°47' E 001°02'713.0
2017-Nov-04 18:27N 50°51' E 001°11'613.5
2017-Nov-04 18:00N 50°55' E 001°18'713.8
2017-Nov-04 17:31N 50°60' E 001°26'612.6
2017-Nov-04 17:00N 51°04' E 001°34'611.7
2017-Nov-04 16:31N 51°03' E 001°43'611.1
2017-Nov-04 16:00N 51°02' E 001°52'510.0
2017-Nov-04 15:30N 51°03' E 001°60'511.0
2017-Nov-04 15:00N 51°03' E 002°08'510.9
2017-Nov-04 14:30N 51°04' E 002°17'3 5.6
2017-Nov-04 13:59N 51°03' E 002°21'0 0.2
2017-Nov-04 13:26N 51°03' E 002°21'0 0.8
2017-Nov-04 12:55N 51°03' E 002°22'0 0.0
2017-Nov-04 12:28N 51°03' E 002°22'0 0.0
2017-Nov-04 11:58N 51°03' E 002°22'0 0.0
2017-Nov-04 11:16N 51°03' E 002°22'0 0.0
2017-Nov-04 10:58N 51°03' E 002°22'0 0.0
2017-Nov-04 10:28N 51°03' E 002°22'0 0.0
2017-Nov-04 09:55N 51°03' E 002°22'0 0.0
2017-Nov-04 09:28N 51°03' E 002°22'0 0.0
2017-Nov-04 07:52N 51°03' E 002°22'0 0.0
2017-Nov-04 07:19N 51°03' E 002°22'0 0.0
2017-Nov-04 06:46N 51°03' E 002°22'0 0.0
2017-Nov-04 06:28N 51°03' E 002°22'0 0.0
2017-Nov-04 05:49N 51°03' E 002°22'0 0.0
2017-Nov-04 05:25N 51°03' E 002°22'0 0.0
2017-Nov-04 04:55N 51°03' E 002°22'0 0.0
2017-Nov-04 04:22N 51°03' E 002°22'0 0.0
2017-Nov-04 03:55N 51°03' E 002°22'0 0.0
2017-Nov-04 03:28N 51°03' E 002°22'0 0.0
2017-Nov-04 02:58N 51°03' E 002°22'0 0.0
2017-Nov-04 02:28N 51°03' E 002°22'0 0.0
2017-Nov-04 01:58N 51°03' E 002°22'0 0.0
2017-Nov-04 01:28N 51°03' E 002°22'0 0.0
2017-Nov-04 00:43N 51°03' E 002°22'0 0.0
2017-Nov-04 00:13N 51°03' E 002°22'0 0.0
2017-Nov-03 23:58N 51°03' E 002°22'0 0.0
2017-Nov-03 23:28N 51°03' E 002°22'0 0.0
2017-Nov-03 22:55N 51°03' E 002°22'0 0.0
2017-Nov-03 22:25N 51°03' E 002°22'0 0.0
2017-Nov-03 21:37N 51°03' E 002°22'0 0.0
2017-Nov-03 21:28N 51°03' E 002°22'0 0.0
2017-Nov-03 20:34N 51°03' E 002°22'0 0.0
2017-Nov-03 20:28N 51°03' E 002°22'0 0.0
2017-Nov-03 19:58N 51°03' E 002°22'0 0.0
2017-Nov-03 19:28N 51°03' E 002°22'0 0.0
2017-Nov-03 18:58N 51°03' E 002°22'0 0.0
2017-Nov-03 18:28N 51°03' E 002°22'0 0.0
2017-Nov-03 17:52N 51°03' E 002°22'0 0.0
2017-Nov-03 17:28N 51°03' E 002°22'0 0.0
2017-Nov-03 16:19N 51°03' E 002°22'0 0.0
2017-Nov-03 15:55N 51°03' E 002°22'0 0.0
2017-Nov-03 15:22N 51°03' E 002°22'0 0.0
2017-Nov-03 14:58N 51°03' E 002°22'0 0.0
2017-Nov-03 14:28N 51°03' E 002°22'0 0.0
2017-Nov-03 13:37N 51°03' E 002°22'0 0.0
2017-Nov-03 13:13N 51°03' E 002°22'0 0.0
2017-Nov-03 12:55N 51°03' E 002°22'0 0.0
2017-Nov-03 12:28N 51°03' E 002°22'0 0.0
2017-Nov-03 11:58N 51°03' E 002°22'0 0.0
2017-Nov-03 11:19N 51°03' E 002°22'0 0.0
2017-Nov-03 10:55N 51°03' E 002°22'0 0.0
2017-Nov-03 10:25N 51°03' E 002°22'0 0.0
2017-Nov-03 09:40N 51°03' E 002°22'0 0.0
2017-Nov-03 09:01N 51°03' E 002°22'0 0.0
2017-Nov-03 08:58N 51°03' E 002°22'0 0.0
2017-Nov-03 08:19N 51°03' E 002°22'0 0.0
2017-Nov-03 07:52N 51°03' E 002°22'0 0.0
2017-Nov-03 07:28N 51°03' E 002°22'0 0.0
2017-Nov-03 06:52N 51°03' E 002°22'0 0.0
2017-Nov-03 06:28N 51°03' E 002°22'0 0.0
2017-Nov-03 05:40N 51°03' E 002°22'0 0.0
2017-Nov-03 05:19N 51°03' E 002°22'0 0.0
2017-Nov-03 04:49N 51°03' E 002°22'0 0.0
2017-Nov-03 04:25N 51°03' E 002°22'0 0.0
2017-Nov-03 03:55N 51°03' E 002°22'0 0.0
2017-Nov-03 02:34N 51°03' E 002°22'0 0.1
2017-Nov-03 02:28N 51°03' E 002°22'0 0.0
2017-Nov-03 01:58N 51°03' E 002°22'0 0.0
2017-Nov-03 01:19N 51°03' E 002°22'0 0.0
2017-Nov-03 00:55N 51°03' E 002°22'0 0.0
2017-Nov-03 00:25N 51°03' E 002°22'0 0.0
2017-Nov-02 23:58N 51°03' E 002°22'0 0.0
2017-Nov-02 23:28N 51°03' E 002°22'0 0.0
2017-Nov-02 22:19N 51°03' E 002°22'0 0.0
2017-Nov-02 21:58N 51°03' E 002°22'0 0.0
2017-Nov-02 21:25N 51°03' E 002°22'0 0.0
2017-Nov-02 20:52N 51°03' E 002°22'0 0.0
2017-Nov-02 20:28N 51°03' E 002°22'0 0.0
2017-Nov-02 19:55N 51°03' E 002°22'0 0.0
2017-Nov-02 19:07N 51°03' E 002°22'0 0.0
2017-Nov-02 18:52N 51°03' E 002°22'0 0.0
2017-Nov-02 18:22N 51°03' E 002°22'0 0.0
2017-Nov-02 17:04N 51°03' E 002°22'0 0.0
2017-Nov-02 16:34N 51°03' E 002°22'0 0.0
2017-Nov-02 16:28N 51°03' E 002°22'0 0.0
2017-Nov-02 15:58N 51°03' E 002°22'0 0.0
2017-Nov-02 15:22N 51°03' E 002°22'0 0.0
2017-Nov-02 14:58N 51°03' E 002°22'0 0.0
2017-Nov-02 13:49N 51°03' E 002°22'0 0.0
2017-Nov-02 13:28N 51°03' E 002°22'0 0.0
2017-Nov-02 12:55N 51°03' E 002°22'0 0.0
2017-Nov-02 12:22N 51°03' E 002°22'0 0.0
2017-Nov-02 11:58N 51°03' E 002°22'0 0.0
2017-Nov-02 11:19N 51°03' E 002°22'0 0.0
2017-Nov-02 10:43N 51°03' E 002°22'0 0.0
2017-Nov-02 10:28N 51°03' E 002°22'0 0.0
2017-Nov-02 09:58N 51°03' E 002°22'0 0.0
2017-Nov-02 08:25N 51°03' E 002°22'0 0.0
2017-Nov-02 07:49N 51°03' E 002°22'0 0.0
2017-Nov-02 07:16N 51°03' E 002°22'0 0.0
2017-Nov-02 06:55N 51°03' E 002°22'0 0.0
2017-Nov-02 06:28N 51°03' E 002°22'0 0.0
2017-Nov-02 05:31N 51°03' E 002°22'0 0.0
2017-Nov-02 05:28N 51°03' E 002°22'0 0.0
2017-Nov-02 04:58N 51°03' E 002°22'0 0.0
2017-Nov-02 04:28N 51°03' E 002°22'0 0.0
2017-Nov-02 02:49N 51°03' E 002°22'0 0.0
2017-Nov-02 02:28N 51°03' E 002°22'0 0.0
2017-Nov-02 01:55N 51°03' E 002°22'0 0.0
2017-Nov-02 01:25N 51°03' E 002°22'0 0.0
2017-Nov-02 00:58N 51°03' E 002°22'0 0.0
2017-Nov-02 00:25N 51°03' E 002°22'0 0.0
2017-Nov-01 23:58N 51°03' E 002°22'0 0.0
2017-Nov-01 23:22N 51°03' E 002°22'0 0.0
2017-Nov-01 22:46N 51°03' E 002°22'0 0.0
2017-Nov-01 22:25N 51°03' E 002°22'0 0.0
2017-Nov-01 21:55N 51°03' E 002°22'0 0.0
2017-Nov-01 21:22N 51°03' E 002°22'0 0.0
2017-Nov-01 20:49N 51°03' E 002°22'0 0.0
2017-Nov-01 20:25N 51°03' E 002°22'0 0.0
2017-Nov-01 19:43N 51°03' E 002°22'0 0.0
2017-Nov-01 19:16N 51°03' E 002°22'0 0.0
2017-Nov-01 18:58N 51°03' E 002°22'0 0.0
2017-Nov-01 18:28N 51°03' E 002°22'  

Dump ship's entire track history